sensor_id;sensor_type;location;lat;lon;timestamp;temperature;humidity
55365;DHT22;41245;45.384;20.390;2023-04-16T08:19:39;537.90;2406.40
55365;DHT22;41245;45.384;20.390;2023-04-16T08:22:05;537.90;2406.40
55365;DHT22;41245;45.384;20.390;2023-04-16T08:24:30;537.90;2406.40
55365;DHT22;41245;45.384;20.390;2023-04-16T08:26:56;537.80;2406.40
55365;DHT22;41245;45.384;20.390;2023-04-16T08:29:22;512.40;2380.80
55365;DHT22;41245;45.384;20.390;2023-04-16T08:31:51;537.80;2406.40
55365;DHT22;41245;45.384;20.390;2023-04-16T08:34:16;538.10;2406.40
55365;DHT22;41245;45.384;20.390;2023-04-16T08:36:42;538.10;2406.40
55365;DHT22;41245;45.384;20.390;2023-04-16T08:39:08;537.90;2406.40
55365;DHT22;41245;45.384;20.390;2023-04-16T08:41:35;538.20;2406.40
55365;DHT22;41245;45.384;20.390;2023-04-16T08:44:13;538.30;2406.40
55365;DHT22;41245;45.384;20.390;2023-04-16T08:46:40;537.70;2406.40
55365;DHT22;41245;45.384;20.390;2023-04-16T08:49:06;537.60;2406.40
55365;DHT22;41245;45.384;20.390;2023-04-16T08:51:35;512.40;2380.80
55365;DHT22;41245;45.384;20.390;2023-04-16T08:54:09;537.60;2406.40
55365;DHT22;41245;45.384;20.390;2023-04-16T08:56:36;537.70;2406.40
55365;DHT22;41245;45.384;20.390;2023-04-16T08:59:03;538.00;2406.40
55365;DHT22;41245;45.384;20.390;2023-04-16T09:01:32;538.00;2406.40
55365;DHT22;41245;45.384;20.390;2023-04-16T09:03:59;538.10;2406.40
55365;DHT22;41245;45.384;20.390;2023-04-16T09:06:28;538.20;2406.40
55365;DHT22;41245;45.384;20.390;2023-04-16T09:08:55;538.00;2406.40
55365;DHT22;41245;45.384;20.390;2023-04-16T09:11:22;563.30;2432.00
55365;DHT22;41245;45.384;20.390;2023-04-16T09:13:48;563.50;2432.00
55365;DHT22;41245;45.384;20.390;2023-04-16T09:16:14;563.50;2432.00
55365;DHT22;41245;45.384;20.390;2023-04-16T09:18:40;563.60;2432.00
55365;DHT22;41245;45.384;20.390;2023-04-16T09:21:08;563.70;2432.00
55365;DHT22;41245;45.384;20.390;2023-04-16T09:23:36;564.00;2432.00
55365;DHT22;41245;45.384;20.390;2023-04-16T09:26:03;564.00;2432.00
55365;DHT22;41245;45.384;20.390;2023-04-16T09:28:42;563.70;2432.00
55365;DHT22;41245;45.384;20.390;2023-04-16T09:31:16;538.30;2406.40
55365;DHT22;41245;45.384;20.390;2023-04-16T09:33:43;538.00;2406.40
55365;DHT22;41245;45.384;20.390;2023-04-16T09:36:22;537.70;2406.40
55365;DHT22;41245;45.384;20.390;2023-04-16T09:38:49;538.00;2406.40
55365;DHT22;41245;45.384;20.390;2023-04-16T09:41:15;512.70;2380.80
55365;DHT22;41245;45.384;20.390;2023-04-16T09:43:54;512.90;2380.80
55365;DHT22;41245;45.384;20.390;2023-04-16T09:46:31;512.50;2329.60
55365;DHT22;41245;45.384;20.390;2023-04-16T09:49:12;512.70;2380.80
55365;DHT22;41245;45.384;20.390;2023-04-16T09:51:41;512.60;2380.80
55365;DHT22;41245;45.384;20.390;2023-04-16T09:54:07;537.60;2406.40
55365;DHT22;41245;45.384;20.390;2023-04-16T09:56:42;537.70;2406.40
55365;DHT22;41245;45.384;20.390;2023-04-16T09:59:15;537.90;2406.40
55365;DHT22;41245;45.384;20.390;2023-04-16T10:01:41;538.20;2406.40
55365;DHT22;41245;45.384;20.390;2023-04-16T10:04:07;538.00;2278.40
55365;DHT22;41245;45.384;20.390;2023-04-16T10:06:33;538.40;2406.40
55365;DHT22;41245;45.384;20.390;2023-04-16T10:08:58;538.10;2406.40
55365;DHT22;41245;45.384;20.390;2023-04-16T10:11:24;538.40;2406.40
55365;DHT22;41245;45.384;20.390;2023-04-16T10:13:51;538.10;2406.40
55365;DHT22;41245;45.384;20.390;2023-04-16T10:16:17;538.20;2406.40
55365;DHT22;41245;45.384;20.390;2023-04-16T10:18:44;537.90;2406.40
55365;DHT22;41245;45.384;20.390;2023-04-16T10:21:10;538.00;2406.40
55365;DHT22;41245;45.384;20.390;2023-04-16T10:23:41;538.20;2406.40
55365;DHT22;41245;45.384;20.390;2023-04-16T10:26:07;538.30;2406.40
55365;DHT22;41245;45.384;20.390;2023-04-16T10:28:33;538.10;2406.40
55365;DHT22;41245;45.384;20.390;2023-04-16T10:31:03;512.90;2380.80
55365;DHT22;41245;45.384;20.390;2023-04-16T10:33:34;512.60;2380.80
55365;DHT22;41245;45.384;20.390;2023-04-16T10:36:07;512.60;2380.80
55365;DHT22;41245;45.384;20.390;2023-04-16T10:38:34;537.60;2406.40
55365;DHT22;41245;45.384;20.390;2023-04-16T10:41:03;537.90;2406.40
55365;DHT22;41245;45.384;20.390;2023-04-16T10:43:31;512.80;2355.20
55365;DHT22;41245;45.384;20.390;2023-04-16T10:48:52;512.90;2380.80
55365;DHT22;41245;45.384;20.390;2023-04-16T10:51:33;537.60;2406.40
55365;DHT22;41245;45.384;20.390;2023-04-16T10:56:35;538.40;2406.40
55365;DHT22;41245;45.384;20.390;2023-04-16T10:59:05;563.40;2432.00
55365;DHT22;41245;45.384;20.390;2023-04-16T11:01:33;563.30;2432.00
55365;DHT22;41245;45.384;20.390;2023-04-16T11:12:13;563.30;2432.00
55365;DHT22;41245;45.384;20.390;2023-04-16T11:14:40;563.20;2432.00
55365;DHT22;41245;45.384;20.390;2023-04-16T11:17:06;538.40;2406.40
55365;DHT22;41245;45.384;20.390;2023-04-16T11:19:34;538.40;2406.40
55365;DHT22;41245;45.384;20.390;2023-04-16T11:22:01;538.40;2406.40
55365;DHT22;41245;45.384;20.390;2023-04-16T11:24:32;538.30;2406.40
55365;DHT22;41245;45.384;20.390;2023-04-16T11:26:58;538.30;2406.40
55365;DHT22;41245;45.384;20.390;2023-04-16T11:29:24;563.20;2432.00
55365;DHT22;41245;45.384;20.390;2023-04-16T11:31:51;563.30;2432.00
55365;DHT22;41245;45.384;20.390;2023-04-16T11:34:17;563.50;2432.00
55365;DHT22;41245;45.384;20.390;2023-04-16T11:36:49;563.40;2432.00
55365;DHT22;41245;45.384;20.390;2023-04-16T11:39:16;538.40;2406.40
55365;DHT22;41245;45.384;20.390;2023-04-16T11:41:46;538.30;2406.40
55365;DHT22;41245;45.384;20.390;2023-04-16T11:44:30;537.90;2406.40
55365;DHT22;41245;45.384;20.390;2023-04-16T11:46:56;512.20;2380.80
55365;DHT22;41245;45.384;20.390;2023-04-16T11:49:29;512.20;2380.80
55365;DHT22;41245;45.384;20.390;2023-04-16T11:51:55;512.00;2380.80
55365;DHT22;41245;45.384;20.390;2023-04-16T11:54:22;512.20;2380.80
55365;DHT22;41245;45.384;20.390;2023-04-16T11:56:51;512.10;2380.80
55365;DHT22;41245;45.384;20.390;2023-04-16T12:01:49;512.00;2380.80
55365;DHT22;41245;45.384;20.390;2023-04-16T12:04:17;486.90;2380.80
55365;DHT22;41245;45.384;20.390;2023-04-16T12:07:11;487.00;2380.80
55365;DHT22;41245;45.384;20.390;2023-04-16T12:09:39;486.80;2380.80
55365;DHT22;41245;45.384;20.390;2023-04-16T12:12:25;486.80;2380.80
55365;DHT22;41245;45.384;20.390;2023-04-16T12:14:52;486.90;2380.80
55365;DHT22;41245;45.384;20.390;2023-04-16T12:17:22;486.90;2380.80
55365;DHT22;41245;45.384;20.390;2023-04-16T12:19:59;487.20;2380.80
55365;DHT22;41245;45.384;20.390;2023-04-16T12:22:30;487.00;2380.80
55365;DHT22;41245;45.384;20.390;2023-04-16T12:25:06;486.70;2380.80
55365;DHT22;41245;45.384;20.390;2023-04-16T12:27:53;486.80;2329.60
55365;DHT22;41245;45.384;20.390;2023-04-16T12:30:21;487.10;2380.80
55365;DHT22;41245;45.384;20.390;2023-04-16T12:35:33;487.00;2380.80
55365;DHT22;41245;45.384;20.390;2023-04-16T12:37:59;486.90;2380.80
55365;DHT22;41245;45.384;20.390;2023-04-16T12:40:25;486.80;2380.80
55365;DHT22;41245;45.384;20.390;2023-04-16T12:42:51;486.70;2380.80
55365;DHT22;41245;45.384;20.390;2023-04-16T12:45:17;486.80;2252.80
55365;DHT22;41245;45.384;20.390;2023-04-16T12:47:43;486.80;2329.60
55365;DHT22;41245;45.384;20.390;2023-04-16T12:50:09;486.80;2304.00
55365;DHT22;41245;45.384;20.390;2023-04-16T12:52:35;486.90;2304.00
55365;DHT22;41245;45.384;20.390;2023-04-16T12:55:01;487.20;2355.20
55365;DHT22;41245;45.384;20.390;2023-04-16T12:57:27;487.20;2380.80
55365;DHT22;41245;45.384;20.390;2023-04-16T12:59:57;487.10;2380.80
55365;DHT22;41245;45.384;20.390;2023-04-16T13:02:23;487.20;2380.80
55365;DHT22;41245;45.384;20.390;2023-04-16T13:04:53;487.10;2380.80
55365;DHT22;41245;45.384;20.390;2023-04-16T13:07:19;486.90;2380.80
55365;DHT22;41245;45.384;20.390;2023-04-16T13:09:46;486.80;2380.80
55365;DHT22;41245;45.384;20.390;2023-04-16T13:12:12;487.00;2380.80
55365;DHT22;41245;45.384;20.390;2023-04-16T13:14:37;487.30;2380.80
55365;DHT22;41245;45.384;20.390;2023-04-16T13:17:03;487.00;2355.20
55365;DHT22;41245;45.384;20.390;2023-04-16T13:19:30;486.90;2380.80
55365;DHT22;41245;45.384;20.390;2023-04-16T13:21:55;486.80;2329.60
55365;DHT22;41245;45.384;20.390;2023-04-16T13:24:21;487.00;2355.20
55365;DHT22;41245;45.384;20.390;2023-04-16T13:26:49;487.00;2380.80
55365;DHT22;41245;45.384;20.390;2023-04-16T13:29:14;487.10;2380.80
55365;DHT22;41245;45.384;20.390;2023-04-16T13:31:40;487.00;2380.80
55365;DHT22;41245;45.384;20.390;2023-04-16T13:34:06;486.70;2380.80
55365;DHT22;41245;45.384;20.390;2023-04-16T13:36:32;486.70;2380.80
55365;DHT22;41245;45.384;20.390;2023-04-16T13:38:58;486.80;2380.80
55365;DHT22;41245;45.384;20.390;2023-04-16T13:41:25;486.80;2380.80
55365;DHT22;41245;45.384;20.390;2023-04-16T13:43:51;486.90;2380.80
55365;DHT22;41245;45.384;20.390;2023-04-16T13:46:16;486.70;2380.80
55365;DHT22;41245;45.384;20.390;2023-04-16T13:48:44;486.50;2355.20
55365;DHT22;41245;45.384;20.390;2023-04-16T13:51:10;486.70;2380.80
55365;DHT22;41245;45.384;20.390;2023-04-16T13:53:36;487.10;2380.80
55365;DHT22;41245;45.384;20.390;2023-04-16T13:56:02;487.20;2355.20
55365;DHT22;41245;45.384;20.390;2023-04-16T13:58:32;486.80;2355.20
55365;DHT22;41245;45.384;20.390;2023-04-16T14:00:57;486.50;2355.20
55365;DHT22;41245;45.384;20.390;2023-04-16T14:03:24;486.50;2380.80
55365;DHT22;41245;45.384;20.390;2023-04-16T14:05:51;486.50;2380.80
55365;DHT22;41245;45.384;20.390;2023-04-16T14:08:18;486.40;2278.40
55365;DHT22;41245;45.384;20.390;2023-04-16T14:10:48;486.50;2380.80
55365;DHT22;41245;45.384;20.390;2023-04-16T14:13:14;486.40;2201.60
55365;DHT22;41245;45.384;20.390;2023-04-16T14:15:40;461.60;2304.00
55365;DHT22;41245;45.384;20.390;2023-04-16T14:18:06;486.50;2380.80
55365;DHT22;41245;45.384;20.390;2023-04-16T14:20:31;486.40;2380.80
55365;DHT22;41245;45.384;20.390;2023-04-16T14:22:57;461.60;2304.00
55365;DHT22;41245;45.384;20.390;2023-04-16T14:25:23;461.70;2150.40
55365;DHT22;41245;45.384;20.390;2023-04-16T14:27:49;486.40;2227.20
55365;DHT22;41245;45.384;20.390;2023-04-16T14:30:15;486.50;2227.20
55365;DHT22;41245;45.384;20.390;2023-04-16T14:32:41;461.60;2252.80
55365;DHT22;41245;45.384;20.390;2023-04-16T14:35:07;461.50;2099.20
55365;DHT22;41245;45.384;20.390;2023-04-16T14:37:33;461.40;2099.20
55365;DHT22;41245;45.384;20.390;2023-04-16T14:40:03;461.50;2124.80
55365;DHT22;41245;45.384;20.390;2023-04-16T14:42:32;461.40;2124.80
55365;DHT22;41245;45.384;20.390;2023-04-16T14:44:59;461.50;2227.20
55365;DHT22;41245;45.384;20.390;2023-04-16T14:47:24;461.50;2176.00
55365;DHT22;41245;45.384;20.390;2023-04-16T14:49:50;461.50;2278.40
55365;DHT22;41245;45.384;20.390;2023-04-16T14:52:16;461.60;2278.40
55365;DHT22;41245;45.384;20.390;2023-04-16T14:54:41;461.60;2124.80
55365;DHT22;41245;45.384;20.390;2023-04-16T14:57:07;461.50;2022.40
55365;DHT22;41245;45.384;20.390;2023-04-16T14:59:33;461.50;2252.80
55365;DHT22;41245;45.384;20.390;2023-04-16T15:01:59;461.50;2150.40
55365;DHT22;41245;45.384;20.390;2023-04-16T15:04:25;461.50;2227.20
55365;DHT22;41245;45.384;20.390;2023-04-16T15:06:51;461.50;2329.60
55365;DHT22;41245;45.384;20.390;2023-04-16T15:09:16;461.60;2380.80
55365;DHT22;41245;45.384;20.390;2023-04-16T15:11:42;461.40;2304.00
55365;DHT22;41245;45.384;20.390;2023-04-16T15:14:08;461.40;2329.60
55365;DHT22;41245;45.384;20.390;2023-04-16T15:16:33;461.20;2355.20
55365;DHT22;41245;45.384;20.390;2023-04-16T15:19:00;461.20;2176.00
55365;DHT22;41245;45.384;20.390;2023-04-16T15:21:27;461.10;2201.60
55365;DHT22;41245;45.384;20.390;2023-04-16T15:23:53;461.10;2073.60
55365;DHT22;41245;45.384;20.390;2023-04-16T15:26:18;461.10;2252.80
55365;DHT22;41245;45.384;20.390;2023-04-16T15:28:44;461.10;2176.00
55365;DHT22;41245;45.384;20.390;2023-04-16T15:31:10;460.90;2176.00
55365;DHT22;41245;45.384;20.390;2023-04-16T15:33:36;460.90;2150.40
55365;DHT22;41245;45.384;20.390;2023-04-16T15:36:01;460.80;2150.40
55365;DHT22;41245;45.384;20.390;2023-04-16T15:38:28;460.80;2252.80
55365;DHT22;41245;45.384;20.390;2023-04-16T15:40:57;436.00;2355.20
55365;DHT22;41245;45.384;20.390;2023-04-16T15:43:26;436.00;2073.60
55365;DHT22;41245;45.384;20.390;2023-04-16T15:45:53;436.00;2355.20
55365;DHT22;41245;45.384;20.390;2023-04-16T15:48:18;435.90;1996.80
55365;DHT22;41245;45.384;20.390;2023-04-16T15:50:44;435.90;1971.20
55365;DHT22;41245;45.384;20.390;2023-04-16T15:53:10;435.90;2048.00
55365;DHT22;41245;45.384;20.390;2023-04-16T15:55:37;435.80;1996.80
55365;DHT22;41245;45.384;20.390;2023-04-16T15:58:03;435.70;2355.20
55365;DHT22;41245;45.384;20.390;2023-04-16T16:00:28;435.70;2355.20
55365;DHT22;41245;45.384;20.390;2023-04-16T16:02:54;435.70;2022.40
55365;DHT22;41245;45.384;20.390;2023-04-16T16:05:20;435.70;2022.40
55365;DHT22;41245;45.384;20.390;2023-04-16T16:07:46;435.60;1971.20
55365;DHT22;41245;45.384;20.390;2023-04-16T16:10:11;435.60;2355.20
55365;DHT22;41245;45.384;20.390;2023-04-16T16:12:38;435.60;1971.20
55365;DHT22;41245;45.384;20.390;2023-04-16T16:15:04;435.50;1996.80
55365;DHT22;41245;45.384;20.390;2023-04-16T16:17:31;435.50;2355.20
55365;DHT22;41245;45.384;20.390;2023-04-16T16:19:57;435.50;1971.20
55365;DHT22;41245;45.384;20.390;2023-04-16T16:22:23;435.50;2355.20
55365;DHT22;41245;45.384;20.390;2023-04-16T16:24:50;435.60;1971.20
55365;DHT22;41245;45.384;20.390;2023-04-16T16:27:17;435.50;2355.20
55365;DHT22;41245;45.384;20.390;2023-04-16T16:29:42;435.40;2355.20
55365;DHT22;41245;45.384;20.390;2023-04-16T16:32:10;435.40;2355.20
55365;DHT22;41245;45.384;20.390;2023-04-16T16:34:36;435.30;2355.20
55365;DHT22;41245;45.384;20.390;2023-04-16T16:41:58;435.20;2355.20
55365;DHT22;41245;45.384;20.390;2023-04-16T17:01:32;410.20;2355.20
55365;DHT22;41245;45.384;20.390;2023-04-16T17:03:57;410.00;2355.20
55365;DHT22;41245;45.384;20.390;2023-04-16T17:11:16;409.70;2355.20
55365;DHT22;41245;45.384;20.390;2023-04-16T17:13:42;384.90;2329.60
55365;DHT22;41245;45.384;20.390;2023-04-16T17:16:08;384.80;2329.60
55365;DHT22;41245;45.384;20.390;2023-04-16T17:18:34;384.70;2329.60
55365;DHT22;41245;45.384;20.390;2023-04-16T17:21:01;384.70;2329.60
55365;DHT22;41245;45.384;20.390;2023-04-16T17:23:27;384.70;2329.60
55365;DHT22;41245;45.384;20.390;2023-04-16T17:25:52;384.60;2329.60
55365;DHT22;41245;45.384;20.390;2023-04-16T17:30:44;384.50;2329.60
